Bible Grove, Illinois
Current Conditions -  °F | °C
As of 12:15 PM on Sunday 25 Jan 2015 (Local Time) from KFOA Reporting Station
Light Rain Light Rain  
Wind Chill: 38°   Ceiling: 500
Heat Index: 41°   Visibility: 5mi
Dew Point: 40°   Wind: 5mph
Humidity: 97%   Direction: 160°SSE
Pressure: 29.59"   Gusts: NA
Location:  38.8267°N, 88.5024°W
Report Text: KFOA 251815Z AUTO 16004KT 5SM -RA BKN005 BKN008 OVC032 05/05 A2959 RMK AO2 T00500046
Loading
Personal Weather Stations






























Interactive Weather Map New forecast layout! Learn more

10-Day Weather Forecast

Advertisements
Track Severe Weather on mobile